Springfield, MO

11:08 PM CDT on July 04, 2015 (GMT -0500)
Springfield-Branson Regional | | Change Station
CLOSE
Current Station
Airport
Location: Springfield,
Elevation: 1280 ft
Nearby Weather Stations

Elev 1280 ft 37.24 °N, 93.39 °W | Updated 16 minutes ago

Haze
Haze
73 °F
Feels Like 73 °F
N
7
Wind Variable Wind from SE

Today
High -- | Low -- °F
--% Chance of Precip.
Yesterday
High -- | Low -- °F
Precip. -- in
5:58 AM 8:37 PM
Waning Gibbous, 88% visible
Pressure 29.98 in
Visibility 5.0 miles
Clouds Clear
Dew Point 68 °F
Humidity 84%
Rainfall 0.00 in
Snow Depth Not available.
UV 0 out of 12
Pollen 3.60 out of 12
Air Quality Not available.
Flu Activity Not available.
METAR KSGF 050352Z 14006KT 5SM HZ CLR 23/20 A3001 RMK AO2 SLP150 T02280200

More Conditions Fewer Conditions

Pressure 29.98 in
Visibility 5.0 miles
Clouds Clear
Dew Point 68 °F
Humidity 84%
Rainfall 0.00 in
Snow Depth Not available.
UV 0 out of 12
Pollen 3.60 out of 12
Air Quality Not available.
Flu Activity Not available.
METAR KSGF 050352Z 14006KT 5SM HZ CLR 23/20 A3001 RMK AO2 SLP150 T02280200

More Conditions Fewer Conditions

10-Day Weather Forecast

×

Almanac

Astronomy

Jul. 04, 2015 Rise Set
Actual Time
Civil Twilight
Nautical Twilight
Astronomical Twilight
Moon
Length of Visible Light
Length of Day
Tomorrow will be .
, % of the Moon is Illuminated

Today's Extremes

State Highs State Lows

Community

WunderPhotos

Upload Photos

1,835,196 photos uploaded!

WunderBlogs® & News

Nearby

Air Quality

  Air Quality AQ Index Pollutant
Not available.

Snow Depth

Station Depth Elevation

Earthquake Activity

City Distance Mag. Time & Date
Minimum magnitude displayed is 2.5.

Coastal Water Temperatures

Place Temperature

Stations

Nearby Weather Stations

Station Location Temp. Windchill Dew Point Humidity Wind Precip. Elev Updated Type